Alango, Minnesota
Current Conditions -  °F | °C
As of 10:55 AM on Tuesday 27 Jan 2015 (Local Time) from KCQM Reporting Station
Overcast Overcast  
Wind Chill: -7°   Ceiling: 500
Heat Index: -4°   Visibility: 10mi
Dew Point: -6°   Wind: 5mph
Humidity: 86%   Direction: 170°S
Pressure: 30.13"   Gusts: NA
Location:  47.7453°N, 92.7634°W
Report Text: KCQM 271655Z AUTO 17004KT 10SM OVC005 M04/M06 A3013 RMK AO2
Loading
Personal Weather Stations






























Interactive Weather Map New forecast layout! Learn more

10-Day Weather Forecast

Advertisements
Track Severe Weather on mobile